createdAt,value
2022-10-13T00:01:27.704Z,98575.41
2022-10-13T00:03:56.314Z,98575.50
2022-10-13T00:06:26.556Z,98571.28
2022-10-13T00:08:56.759Z,98572.16
2022-10-13T00:11:27.337Z,98564.53
2022-10-13T00:13:58.490Z,98573.13
2022-10-13T00:16:29.037Z,98579.16
2022-10-13T00:18:57.506Z,98585.19
2022-10-13T00:21:27.596Z,98586.94
2022-10-13T00:23:57.769Z,98584.34
2022-10-13T00:26:27.788Z,98587.72
2022-10-13T00:28:56.581Z,98579.19
2022-10-13T00:31:27.196Z,98591.16
2022-10-13T00:33:55.994Z,98588.66
2022-10-13T00:36:24.887Z,98587.75
2022-10-13T00:38:53.904Z,98583.59
2022-10-13T00:41:23.487Z,98582.78
2022-10-13T00:44:01.195Z,98584.53
2022-10-13T00:46:31.823Z,98582.91
2022-10-13T00:49:03.583Z,98577.84
2022-10-13T00:51:35.721Z,98587.34
2022-10-13T00:54:07.413Z,98584.84
2022-10-13T00:56:40.089Z,98590.91
2022-10-13T00:59:23.291Z,98591.78
2022-10-13T01:01:51.840Z,98583.25
2022-10-13T01:04:23.015Z,98582.47
2022-10-13T01:06:52.300Z,98594.41
2022-10-13T01:09:20.331Z,98584.16
2022-10-13T01:12:00.734Z,98582.44
2022-10-13T01:14:35.693Z,98579.84
2022-10-13T01:17:13.409Z,98584.97
2022-10-13T01:20:10.882Z,98572.16
2022-10-13T01:22:58.113Z,98587.44
2022-10-13T01:25:45.909Z,98569.56
2022-10-13T01:28:50.645Z,98583.97
2022-10-13T01:31:27.827Z,98586.47
2022-10-13T01:34:06.027Z,98587.31
2022-10-13T01:36:45.378Z,98588.97
2022-10-13T01:39:24.391Z,98585.56
2022-10-13T01:41:57.480Z,98570.16
2022-10-13T01:44:32.323Z,98570.09
2022-10-13T01:47:04.449Z,98576.06
2022-10-13T01:49:37.161Z,98577.75
2022-10-13T01:52:10.136Z,98561.56
2022-10-13T01:54:38.465Z,98570.88
2022-10-13T01:57:26.938Z,98567.41
2022-10-13T01:59:55.677Z,98555.41
2022-10-13T02:02:33.601Z,98547.84
2022-10-13T02:05:10.526Z,98565.66
2022-10-13T02:07:45.862Z,98555.44
2022-10-13T02:10:21.453Z,98557.97
2022-10-13T02:12:54.899Z,98553.72
2022-10-13T02:15:27.285Z,98548.69
2022-10-13T02:17:57.429Z,98538.47
2022-10-13T02:20:25.616Z,98543.59
2022-10-13T02:23:02.601Z,98546.22
2022-10-13T02:25:32.095Z,98543.72
2022-10-13T02:28:01.986Z,98539.47
2022-10-13T02:30:32.122Z,98536.84
2022-10-13T02:33:02.069Z,98545.41
2022-10-13T02:35:31.166Z,98550.63
2022-10-13T02:37:59.872Z,98545.56
2022-10-13T02:40:28.419Z,98544.75
2022-10-13T02:42:56.914Z,98538.78
2022-10-13T02:45:25.370Z,98537.06
2022-10-13T02:47:54.321Z,98538.72
2022-10-13T02:50:24.336Z,98544.59
2022-10-13T02:52:52.999Z,98544.53
2022-10-13T02:55:21.482Z,98537.63
2022-10-13T02:57:49.705Z,98544.41
2022-10-13T03:00:18.277Z,98543.47
2022-10-13T03:02:46.871Z,98534.03
2022-10-13T03:05:15.209Z,98532.34
2022-10-13T03:07:44.771Z,98532.44
2022-10-13T03:10:13.101Z,98536.72
2022-10-13T03:12:41.424Z,98541.84
2022-10-13T03:15:10.640Z,98536.72
2022-10-13T03:17:38.811Z,98536.81
2022-10-13T03:20:08.524Z,98530.84
2022-10-13T03:22:36.834Z,98536.84
2022-10-13T03:25:08.027Z,98539.47
2022-10-13T03:27:36.601Z,98535.22
2022-10-13T03:30:06.202Z,98536.88
2022-10-13T03:32:35.542Z,98541.16
2022-10-13T03:35:03.844Z,98533.47
2022-10-13T03:37:32.643Z,98530.06
2022-10-13T03:40:01.502Z,98533.50
2022-10-13T03:42:31.548Z,98524.16
2022-10-13T03:44:59.721Z,98525.00
2022-10-13T03:47:28.482Z,98522.44
2022-10-13T03:49:57.613Z,98526.69
2022-10-13T03:52:26.154Z,98535.16
2022-10-13T03:54:54.493Z,98520.63
2022-10-13T03:57:22.925Z,98524.78
2022-10-13T03:59:52.528Z,98518.75
2022-10-13T04:02:21.074Z,98519.56
2022-10-13T04:04:49.817Z,98519.56
2022-10-13T04:07:18.254Z,98520.38
2022-10-13T04:09:48.171Z,98501.66
2022-10-13T04:12:20.622Z,98519.53
2022-10-13T04:14:49.647Z,98508.44
2022-10-13T04:17:19.363Z,98516.94
2022-10-13T04:19:47.866Z,98515.19
2022-10-13T04:22:15.970Z,98517.72
2022-10-13T04:24:44.655Z,98516.81
2022-10-13T04:27:12.882Z,98521.88
2022-10-13T04:29:41.510Z,98514.06
2022-10-13T04:32:09.933Z,98520.03
2022-10-13T04:34:40.353Z,98516.50
2022-10-13T04:37:08.777Z,98509.63
2022-10-13T04:39:37.286Z,98495.09
2022-10-13T04:42:05.836Z,98495.81
2022-10-13T04:44:34.292Z,98497.47
2022-10-13T04:47:02.719Z,98499.19
2022-10-13T04:49:31.159Z,98500.84
2022-10-13T04:52:01.219Z,98505.03
2022-10-13T04:54:29.747Z,98493.03
2022-10-13T04:56:59.357Z,98475.84
2022-10-13T04:59:28.504Z,98491.06
2022-10-13T05:01:57.267Z,98487.63
2022-10-13T05:04:25.498Z,98497.00
2022-10-13T05:07:16.453Z,98496.97
2022-10-13T05:09:43.876Z,98488.31
2022-10-13T05:12:12.300Z,98496.81
2022-10-13T05:14:40.877Z,98499.41
2022-10-13T05:17:09.553Z,98495.81
2022-10-13T05:19:38.585Z,98491.59
2022-10-13T05:22:07.649Z,98478.72
2022-10-13T05:24:38.149Z,98481.22
2022-10-13T05:27:13.068Z,98485.34
2022-10-13T05:29:42.484Z,98482.78
2022-10-13T05:32:10.935Z,98486.28
2022-10-13T05:34:39.613Z,98488.84
2022-10-13T05:37:08.001Z,98488.78
2022-10-13T05:39:37.115Z,98488.72
2022-10-13T05:42:05.789Z,98472.50
2022-10-13T05:44:36.614Z,98490.28
2022-10-13T05:47:07.661Z,98496.28
2022-10-13T05:49:39.995Z,98497.19
2022-10-13T05:52:13.022Z,98500.56
2022-10-13T05:54:44.192Z,98501.41
2022-10-13T05:57:17.640Z,98503.94
2022-10-13T05:59:52.412Z,98503.94
2022-10-13T06:02:24.298Z,98505.63
2022-10-13T06:04:55.937Z,98501.34
2022-10-13T06:07:24.422Z,98508.09
2022-10-13T06:09:52.814Z,98509.81
2022-10-13T06:12:28.555Z,98501.94
2022-10-13T06:14:58.489Z,98499.38
2022-10-13T06:17:26.963Z,98501.00
2022-10-13T06:19:55.137Z,98497.50
2022-10-13T06:22:23.524Z,98500.16
2022-10-13T06:24:51.680Z,98500.13
2022-10-13T06:27:19.956Z,98500.13
2022-10-13T06:29:48.265Z,98511.41
2022-10-13T06:32:18.625Z,98514.06
2022-10-13T06:34:47.693Z,98514.09
2022-10-13T06:37:15.979Z,98506.34
2022-10-13T06:39:44.359Z,98514.81
2022-10-13T06:42:12.483Z,98512.88
2022-10-13T06:44:40.820Z,98520.47
2022-10-13T06:47:09.362Z,98520.34
2022-10-13T06:49:39.102Z,98518.66
2022-10-13T06:52:07.565Z,98522.16
2022-10-13T06:54:36.282Z,98521.09
2022-10-13T06:57:07.547Z,98527.94
2022-10-13T06:59:39.465Z,98515.06
2022-10-13T07:02:07.941Z,98522.78
2022-10-13T07:04:36.220Z,98522.69
2022-10-13T07:07:05.748Z,98520.06
2022-10-13T07:09:33.949Z,98523.44
2022-10-13T07:12:02.141Z,98521.78
2022-10-13T07:14:30.397Z,98510.59
2022-10-13T07:16:58.505Z,98507.88
2022-10-13T07:19:26.725Z,98512.22
2022-10-13T07:21:55.120Z,98501.31
2022-10-13T07:24:25.084Z,98499.41
2022-10-13T07:26:53.877Z,98505.38
2022-10-13T07:29:22.942Z,98505.22
2022-10-13T07:31:51.426Z,98512.91
2022-10-13T07:34:19.624Z,98505.44
2022-10-13T07:36:48.130Z,98511.31
2022-10-13T07:39:16.372Z,98509.53
2022-10-13T07:41:50.758Z,98507.53
2022-10-13T07:44:20.049Z,98506.56
2022-10-13T07:46:48.077Z,98505.84
2022-10-13T07:49:16.817Z,98509.19
2022-10-13T07:51:45.540Z,98509.09
2022-10-13T07:54:13.761Z,98502.06
2022-10-13T07:56:42.213Z,98501.13
2022-10-13T07:59:11.883Z,98502.00
2022-10-13T08:01:41.776Z,98494.84
2022-10-13T08:04:09.884Z,98498.09
2022-10-13T08:06:38.216Z,98495.13
2022-10-13T08:09:06.488Z,98493.38
2022-10-13T08:11:34.750Z,98496.53
2022-10-13T08:14:03.608Z,98491.88
2022-10-13T08:16:34.304Z,98483.19
2022-10-13T08:19:02.486Z,98476.97
2022-10-13T08:24:19.636Z,98489.69
2022-10-13T08:26:48.290Z,98489.50
2022-10-13T08:29:22.932Z,98485.66
2022-10-13T08:31:54.361Z,98493.38
2022-10-13T08:34:23.269Z,98482.84
2022-10-13T08:36:53.488Z,98481.41
2022-10-13T08:39:23.006Z,98491.63
2022-10-13T08:41:51.748Z,98490.81
2022-10-13T08:45:02.578Z,98492.69
2022-10-13T08:47:22.025Z,98487.75
2022-10-13T08:49:50.550Z,98493.53
2022-10-13T08:52:23.699Z,98490.13
2022-10-13T08:54:54.501Z,98493.47
2022-10-13T08:57:24.026Z,98484.97
2022-10-13T08:59:54.139Z,98490.25
2022-10-13T09:02:30.708Z,98489.34
2022-10-13T09:05:03.874Z,98473.66
2022-10-13T09:07:38.402Z,98481.94
2022-10-13T09:10:21.899Z,98484.44
2022-10-13T09:12:51.738Z,98490.31
2022-10-13T09:15:20.917Z,98486.09
2022-10-13T09:18:10.560Z,98488.06
2022-10-13T09:20:39.352Z,98486.34
2022-10-13T09:23:16.998Z,98480.16
2022-10-13T09:25:50.204Z,98464.94
2022-10-13T09:28:25.339Z,98476.53
2022-10-13T09:31:04.553Z,98456.81
2022-10-13T09:33:39.254Z,98465.16
2022-10-13T09:36:12.579Z,98449.38
2022-10-13T09:38:42.769Z,98459.34
2022-10-13T09:41:17.747Z,98445.25
2022-10-13T09:44:00.842Z,98454.22
2022-10-13T09:46:33.739Z,98452.31
2022-10-13T09:49:06.221Z,98452.56
2022-10-13T09:51:39.316Z,98455.91
2022-10-13T09:54:25.200Z,98460.38
2022-10-13T09:56:57.373Z,98458.41
2022-10-13T09:59:33.412Z,98467.63
2022-10-13T10:02:05.667Z,98456.44
2022-10-13T10:04:42.068Z,98459.22
2022-10-13T10:07:13.683Z,98459.69
2022-10-13T10:09:48.304Z,98464.34
2022-10-13T10:12:28.786Z,98471.84
2022-10-13T10:14:57.581Z,98472.16
2022-10-13T10:17:34.845Z,98461.47
2022-10-13T10:20:22.365Z,98461.09
2022-10-13T10:23:00.385Z,98457.94
2022-10-13T10:25:36.526Z,98451.81
2022-10-13T10:28:20.330Z,98467.50
2022-10-13T10:30:54.215Z,98457.16
2022-10-13T10:33:27.415Z,98455.66
2022-10-13T10:36:06.488Z,98440.84
2022-10-13T10:38:45.167Z,98437.16
2022-10-13T10:41:25.829Z,98437.97
2022-10-13T10:43:58.062Z,98445.56
2022-10-13T10:46:29.521Z,98431.06
2022-10-13T10:49:01.870Z,98429.09
2022-10-13T10:51:34.172Z,98419.91
2022-10-13T10:54:14.375Z,98420.28
2022-10-13T10:56:48.977Z,98416.47
2022-10-13T10:59:29.687Z,98416.72
2022-10-13T11:02:12.188Z,98414.41
2022-10-13T11:04:43.490Z,98402.25
2022-10-13T11:07:35.189Z,98395.38
2022-10-13T11:10:19.405Z,98393.81
2022-10-13T11:13:10.908Z,98389.31
2022-10-13T11:15:47.785Z,98373.47
2022-10-13T11:19:08.114Z,98368.41
2022-10-13T11:22:16.863Z,98364.00
2022-10-13T11:24:54.490Z,98370.31
2022-10-13T11:27:42.285Z,98380.25
2022-10-13T11:30:50.758Z,98375.75
2022-10-13T11:33:53.555Z,98376.84
2022-10-13T11:36:51.047Z,98367.41
2022-10-13T11:39:51.013Z,98375.88
2022-10-13T11:42:35.889Z,98364.50
2022-10-13T11:45:15.013Z,98346.72
2022-10-13T11:48:02.861Z,98352.38
2022-10-13T11:50:44.341Z,98355.81
2022-10-13T11:53:18.857Z,98357.41
2022-10-13T11:55:54.257Z,98333.69
2022-10-13T11:58:24.694Z,98341.00
2022-10-13T12:00:58.433Z,98331.94
2022-10-13T12:03:31.908Z,98338.13
2022-10-13T12:06:04.482Z,98342.06
2022-10-13T12:08:35.728Z,98338.03
2022-10-13T12:11:10.186Z,98323.78
2022-10-13T12:13:39.403Z,98334.88
2022-10-13T12:16:09.366Z,98330.13
2022-10-13T12:18:39.600Z,98333.31
2022-10-13T12:21:14.534Z,98328.25
2022-10-13T12:23:43.241Z,98316.56
2022-10-13T12:26:20.928Z,98322.56
2022-10-13T12:28:53.359Z,98317.25
2022-10-13T12:31:24.785Z,98324.50
2022-10-13T12:33:54.982Z,98315.03
2022-10-13T12:36:30.051Z,98299.16
2022-10-13T12:39:03.295Z,98293.78
2022-10-13T12:41:35.574Z,98283.34
2022-10-13T12:44:06.920Z,98297.59
2022-10-13T12:46:40.365Z,98287.75
2022-10-13T12:49:14.590Z,98294.94
2022-10-13T12:51:47.020Z,98297.19
2022-10-13T12:54:24.799Z,98288.81
2022-10-13T12:56:59.128Z,98293.38
2022-10-13T12:59:29.666Z,98293.81
2022-10-13T13:02:00.709Z,98297.78
2022-10-13T13:04:43.897Z,98295.25
2022-10-13T13:07:32.885Z,98295.00
2022-10-13T13:10:26.350Z,98289.81
2022-10-13T13:12:57.169Z,98290.50
2022-10-13T13:15:38.866Z,98292.63
2022-10-13T13:18:35.970Z,98286.66
2022-10-13T13:21:07.078Z,98287.31
2022-10-13T13:23:59.479Z,98290.75
2022-10-13T13:26:30.158Z,98291.72
2022-10-13T13:29:01.061Z,98289.81
2022-10-13T13:31:30.384Z,98294.97
2022-10-13T13:33:59.075Z,98284.66
2022-10-13T13:36:28.354Z,98289.38
2022-10-13T13:38:57.249Z,98280.63
2022-10-13T13:41:27.925Z,98277.69
2022-10-13T13:44:01.503Z,98280.56
2022-10-13T13:46:32.932Z,98283.72
2022-10-13T13:49:02.453Z,98286.66
2022-10-13T13:51:32.939Z,98277.97
2022-10-13T13:54:01.675Z,98272.28
2022-10-13T13:56:29.952Z,98263.44
2022-10-13T13:58:59.592Z,98254.03
2022-10-13T14:01:28.121Z,98255.13
2022-10-13T14:03:56.657Z,98263.56
2022-10-13T14:06:25.032Z,98261.63
2022-10-13T14:08:53.205Z,98257.97
2022-10-13T14:11:21.517Z,98257.16
2022-10-13T14:13:49.768Z,98253.06
2022-10-13T14:16:19.489Z,98271.78
2022-10-13T14:18:47.789Z,98275.78
2022-10-13T14:21:16.104Z,98256.84
2022-10-13T14:23:47.118Z,98256.84
2022-10-13T14:26:15.583Z,98246.56
2022-10-13T14:28:45.154Z,98264.19
2022-10-13T14:31:13.670Z,98255.16
2022-10-13T14:33:43.733Z,98236.97
2022-10-13T14:36:12.282Z,98242.94
2022-10-13T14:38:40.463Z,98243.31
2022-10-13T14:41:08.946Z,98252.13
2022-10-13T14:43:37.220Z,98246.56
2022-10-13T14:46:07.169Z,98241.28
2022-10-13T14:48:37.174Z,98240.59
2022-10-13T14:51:08.265Z,98245.75
2022-10-13T14:53:38.562Z,98248.09
2022-10-13T14:56:17.517Z,98248.47
2022-10-13T14:58:46.830Z,98251.78
2022-10-13T15:01:15.210Z,98248.25
2022-10-13T15:03:44.066Z,98238.50
2022-10-13T15:06:16.416Z,98232.91
2022-10-13T15:08:46.033Z,98235.63
2022-10-13T15:11:15.460Z,98238.44
2022-10-13T15:13:43.878Z,98239.59
2022-10-13T15:16:17.675Z,98233.41
2022-10-13T15:18:46.113Z,98228.56
2022-10-13T15:21:16.765Z,98230.13
2022-10-13T15:23:45.647Z,98228.25
2022-10-13T15:26:16.149Z,98227.41
2022-10-13T15:28:46.472Z,98236.19
2022-10-13T15:31:16.631Z,98235.41
2022-10-13T15:33:46.679Z,98243.38
2022-10-13T15:36:17.177Z,98235.94
2022-10-13T15:38:45.623Z,98235.25
2022-10-13T15:41:14.703Z,98230.28
2022-10-13T15:43:44.511Z,98230.31
2022-10-13T15:46:21.121Z,98235.09
2022-10-13T15:48:49.859Z,98241.34
2022-10-13T15:51:21.779Z,98243.94
2022-10-13T15:53:50.598Z,98244.97
2022-10-13T15:56:19.102Z,98236.53
2022-10-13T15:58:48.674Z,98235.28
2022-10-13T16:01:18.091Z,98238.78
2022-10-13T16:03:46.354Z,98242.53
2022-10-13T16:06:15.036Z,98232.63
2022-10-13T16:08:45.113Z,98232.94
2022-10-13T16:11:16.163Z,98234.16
2022-10-13T16:13:47.467Z,98231.00
2022-10-13T16:16:16.611Z,98233.81
2022-10-13T16:18:45.255Z,98223.63
2022-10-13T16:21:18.567Z,98225.69
2022-10-13T16:23:49.842Z,98232.78
2022-10-13T16:26:19.438Z,98228.78
2022-10-13T16:28:47.874Z,98233.91
2022-10-13T16:31:18.274Z,98216.19
2022-10-13T16:33:47.491Z,98233.19
2022-10-13T16:36:17.560Z,98243.56
2022-10-13T16:38:47.407Z,98241.88
2022-10-13T16:41:18.883Z,98236.75
2022-10-13T16:43:48.257Z,98240.22
2022-10-13T16:46:18.118Z,98232.59
2022-10-13T16:48:48.214Z,98238.59
2022-10-13T16:51:18.978Z,98230.84
2022-10-13T16:53:51.116Z,98222.47
2022-10-13T16:56:24.471Z,98228.38
2022-10-13T16:58:54.990Z,98225.00
2022-10-13T17:01:23.838Z,98231.06
2022-10-13T17:03:53.036Z,98231.06
2022-10-13T17:06:22.768Z,98238.88
2022-10-13T17:08:51.576Z,98234.66
2022-10-13T17:11:25.005Z,98232.97
2022-10-13T17:13:53.803Z,98227.91
2022-10-13T17:16:23.363Z,98238.03
2022-10-13T17:18:51.701Z,98229.47
2022-10-13T17:21:21.486Z,98223.78
2022-10-13T17:23:50.957Z,98224.69
2022-10-13T17:26:21.636Z,98227.28
2022-10-13T17:28:50.165Z,98219.38
2022-10-13T17:31:23.237Z,98230.63
2022-10-13T17:33:54.347Z,98227.28
2022-10-13T17:36:25.279Z,98221.50
2022-10-13T17:38:55.860Z,98225.16
2022-10-13T17:41:26.669Z,98224.44
2022-10-13T17:43:54.870Z,98208.63
2022-10-13T17:46:36.130Z,98209.47
2022-10-13T17:49:06.223Z,98220.63
2022-10-13T17:51:34.507Z,98222.50
2022-10-13T17:54:04.358Z,98220.06
2022-10-13T17:56:36.389Z,98236.13
2022-10-13T17:59:05.540Z,98229.19
2022-10-13T18:01:36.586Z,98223.22
2022-10-13T18:04:09.319Z,98206.03
2022-10-13T18:06:41.934Z,98214.56
2022-10-13T18:09:17.147Z,98221.41
2022-10-13T18:11:51.355Z,98226.81
2022-10-13T18:14:21.010Z,98219.31
2022-10-13T18:16:50.157Z,98219.25
2022-10-13T18:19:19.108Z,98220.97
2022-10-13T18:21:50.016Z,98225.31
2022-10-13T18:24:18.942Z,98228.78
2022-10-13T18:26:50.450Z,98227.09
2022-10-13T18:29:19.707Z,98222.81
2022-10-13T18:31:48.355Z,98217.72
2022-10-13T18:34:18.629Z,98204.28
2022-10-13T18:36:48.633Z,98214.34
2022-10-13T18:39:19.037Z,98217.75
2022-10-13T18:41:50.272Z,98222.81
2022-10-13T18:44:19.178Z,98220.31
2022-10-13T18:46:51.008Z,98221.94
2022-10-13T18:49:23.215Z,98219.25
2022-10-13T18:51:52.545Z,98221.84
2022-10-13T18:54:23.260Z,98214.00
2022-10-13T18:56:54.069Z,98213.22
2022-10-13T18:59:22.485Z,98208.75
2022-10-13T19:01:50.872Z,98207.91
2022-10-13T19:04:19.988Z,98196.19
2022-10-13T19:06:49.040Z,98204.69
2022-10-13T19:09:19.214Z,98212.50
2022-10-13T19:11:47.789Z,98213.50
2022-10-13T19:14:17.564Z,98208.53
2022-10-13T19:16:46.259Z,98208.53
2022-10-13T19:19:15.969Z,98193.97
2022-10-13T19:21:45.022Z,98195.44
2022-10-13T19:24:13.489Z,98195.53
2022-10-13T19:26:41.892Z,98192.13
2022-10-13T19:29:12.089Z,98188.63
2022-10-13T19:31:44.026Z,98193.88
2022-10-13T19:34:16.058Z,98192.25
2022-10-13T19:36:46.723Z,98189.88
2022-10-13T19:39:16.807Z,98189.25
2022-10-13T19:41:46.094Z,98183.53
2022-10-13T19:44:16.291Z,98177.72
2022-10-13T19:46:47.752Z,98181.34
2022-10-13T19:49:18.386Z,98178.00
2022-10-13T19:51:47.588Z,98174.41
2022-10-13T19:54:18.849Z,98175.22
2022-10-13T19:56:48.659Z,98166.91
2022-10-13T19:59:17.871Z,98173.56
2022-10-13T20:01:48.289Z,98165.97
2022-10-13T20:04:21.065Z,98161.66
2022-10-13T20:06:50.389Z,98154.66
2022-10-13T20:09:19.716Z,98165.81
2022-10-13T20:11:50.628Z,98155.66
2022-10-13T20:14:19.079Z,98148.19
2022-10-13T20:16:49.336Z,98159.34
2022-10-13T20:19:19.638Z,98163.69
2022-10-13T20:21:51.870Z,98158.81
2022-10-13T20:24:21.128Z,98175.13
2022-10-13T20:26:49.447Z,98169.22
2022-10-13T20:29:18.814Z,98175.38
2022-10-13T20:31:48.936Z,98174.53
2022-10-13T20:34:17.448Z,98171.31
2022-10-13T20:36:45.740Z,98171.31
2022-10-13T20:39:14.191Z,98170.66
2022-10-13T20:41:42.796Z,98167.16
2022-10-13T20:44:11.672Z,98181.81
2022-10-13T20:46:40.245Z,98179.34
2022-10-13T20:49:11.894Z,98175.25
2022-10-13T20:51:41.228Z,98183.75
2022-10-13T20:54:10.046Z,98178.59
2022-10-13T20:56:38.688Z,98166.94
2022-10-13T20:59:09.632Z,98176.31
2022-10-13T21:01:38.448Z,98190.78
2022-10-13T21:04:10.503Z,98186.66
2022-10-13T21:06:38.815Z,98183.41
2022-10-13T21:09:07.883Z,98185.78
2022-10-13T21:11:37.006Z,98193.53
2022-10-13T21:14:07.262Z,98183.31
2022-10-13T21:16:36.635Z,98186.03
2022-10-13T21:19:06.040Z,98203.16
2022-10-13T21:21:36.605Z,98191.34
2022-10-13T21:24:07.342Z,98190.47
2022-10-13T21:26:36.455Z,98198.13
2022-10-13T21:29:05.389Z,98203.34
2022-10-13T21:31:33.777Z,98199.16
2022-10-13T21:34:02.054Z,98194.09
2022-10-13T21:36:32.487Z,98202.44
2022-10-13T21:39:03.939Z,98199.91
2022-10-13T21:41:32.949Z,98202.50
2022-10-13T21:44:01.543Z,98202.38
2022-10-13T21:46:32.001Z,98204.06
2022-10-13T21:49:03.110Z,98202.31
2022-10-13T21:51:33.882Z,98194.69
2022-10-13T21:54:06.867Z,98205.84
2022-10-13T21:56:36.199Z,98204.16
2022-10-13T21:59:04.745Z,98199.00
2022-10-13T22:01:33.213Z,98199.06
2022-10-13T22:04:02.943Z,98192.19
2022-10-13T22:06:32.980Z,98201.53
2022-10-13T22:09:05.292Z,98199.78
2022-10-13T22:11:36.872Z,98193.84
2022-10-13T22:14:06.087Z,98208.38
2022-10-13T22:16:38.341Z,98207.44
2022-10-13T22:19:07.342Z,98209.94
2022-10-13T22:21:37.674Z,98214.34
2022-10-13T22:24:09.838Z,98215.09
2022-10-13T22:26:41.352Z,98216.69
2022-10-13T22:29:11.992Z,98209.72
2022-10-13T22:31:40.660Z,98223.44
2022-10-13T22:34:08.985Z,98211.53
2022-10-13T22:36:41.063Z,98220.03
2022-10-13T22:39:14.367Z,98197.16
2022-10-13T22:41:43.270Z,98199.78
2022-10-13T22:44:11.907Z,98214.19
2022-10-13T22:46:41.603Z,98201.47
2022-10-13T22:49:10.683Z,98211.63
2022-10-13T22:51:39.530Z,98204.94
2022-10-13T22:54:08.363Z,98212.63
2022-10-13T22:56:39.098Z,98203.16
2022-10-13T22:59:08.970Z,98200.00
2022-10-13T23:01:37.497Z,98204.88
2022-10-13T23:04:06.087Z,98205.81
2022-10-13T23:06:36.044Z,98208.38
2022-10-13T23:09:07.177Z,98204.19
2022-10-13T23:11:36.243Z,98201.72
2022-10-13T23:14:06.325Z,98198.31
2022-10-13T23:16:35.571Z,98196.59
2022-10-13T23:19:04.262Z,98195.75
2022-10-13T23:21:32.903Z,98189.00
2022-10-13T23:24:03.025Z,98199.16
2022-10-13T23:26:33.313Z,98201.59
2022-10-13T23:29:02.510Z,98194.69
2022-10-13T23:31:32.909Z,98205.84
2022-10-13T23:34:01.497Z,98193.25
2022-10-13T23:36:32.538Z,98180.31
2022-10-13T23:39:02.759Z,98199.72
2022-10-13T23:41:31.853Z,98206.81
2022-10-13T23:44:00.399Z,98194.69
2022-10-13T23:46:29.230Z,98213.34
2022-10-13T23:48:59.522Z,98199.72
2022-10-13T23:51:28.570Z,98206.38
2022-10-13T23:53:57.552Z,98189.41
2022-10-13T23:56:26.325Z,98202.09
2022-10-13T23:58:55.128Z,98201.16
